createdAt,value
2019-04-04T00:01:01.636Z,39.20
2019-04-04T00:04:09.253Z,41.50
2019-04-04T00:07:16.732Z,48.20
2019-04-04T00:10:25.538Z,52.27
2019-04-04T00:13:33.656Z,39.10
2019-04-04T00:16:41.230Z,36.93
2019-04-04T00:19:48.724Z,42.10
2019-04-04T00:22:56.226Z,37.07
2019-04-04T00:26:03.733Z,43.30
2019-04-04T00:29:11.292Z,37.03
2019-04-04T00:32:21.105Z,41.83
2019-04-04T00:35:30.761Z,41.83
2019-04-04T00:38:38.544Z,37.10
2019-04-04T00:41:46.289Z,41.40
2019-04-04T00:44:55.626Z,39.40
2019-04-04T00:48:03.944Z,35.87
2019-04-04T00:51:11.511Z,37.83
2019-04-04T00:54:18.969Z,37.00
2019-04-04T00:57:26.499Z,42.00
2019-04-04T01:00:33.929Z,42.70
2019-04-04T01:03:41.503Z,41.50
2019-04-04T01:06:49.573Z,44.77
2019-04-04T01:09:57.064Z,41.60
2019-04-04T01:13:04.787Z,46.13
2019-04-04T01:16:12.362Z,42.83
2019-04-04T01:19:19.838Z,53.43
2019-04-04T01:22:27.367Z,42.27
2019-04-04T01:25:35.019Z,47.37
2019-04-04T01:28:42.500Z,48.53
2019-04-04T01:31:49.993Z,53.83
2019-04-04T01:34:57.538Z,50.90
2019-04-04T01:38:05.157Z,51.87
2019-04-04T01:41:12.595Z,59.63
2019-04-04T01:44:20.215Z,58.07
2019-04-04T01:47:27.727Z,57.17
2019-04-04T01:50:35.345Z,56.20
2019-04-04T01:53:42.801Z,60.23
2019-04-04T01:56:50.269Z,52.50
2019-04-04T01:59:57.875Z,50.17
2019-04-04T02:03:05.400Z,44.53
2019-04-04T02:06:12.993Z,53.10
2019-04-04T02:09:21.041Z,51.77
2019-04-04T02:12:30.477Z,47.40
2019-04-04T02:15:38.047Z,55.77
2019-04-04T02:18:45.672Z,48.10
2019-04-04T02:21:53.227Z,50.10
2019-04-04T02:25:02.755Z,50.30
2019-04-04T02:28:09.941Z,44.80
2019-04-04T02:31:20.611Z,47.63
2019-04-04T02:34:27.191Z,46.70
2019-04-04T02:37:34.768Z,43.43
2019-04-04T02:40:42.387Z,46.33
2019-04-04T02:43:51.060Z,46.00
2019-04-04T02:46:58.565Z,47.40
2019-04-04T02:50:07.566Z,47.47
2019-04-04T02:53:19.386Z,49.27
2019-04-04T02:56:24.238Z,53.17
2019-04-04T02:59:31.699Z,49.87
2019-04-04T03:02:39.213Z,54.90
2019-04-04T03:05:50.963Z,48.10
2019-04-04T03:08:55.986Z,50.67
2019-04-04T03:12:03.536Z,50.43
2019-04-04T03:15:11.246Z,47.90
2019-04-04T03:18:18.806Z,48.53
2019-04-04T03:21:26.334Z,62.23
2019-04-04T03:24:33.810Z,45.30
2019-04-04T03:27:41.360Z,49.10
2019-04-04T03:31:00.846Z,48.93
2019-04-04T03:33:58.246Z,46.07
2019-04-04T03:37:06.558Z,44.50
2019-04-04T03:40:15.069Z,48.17
2019-04-04T03:43:23.590Z,44.97
2019-04-04T03:46:35.878Z,47.43
2019-04-04T03:49:40.455Z,47.30
2019-04-04T03:52:48.177Z,52.43
2019-04-04T03:56:00.211Z,54.33
2019-04-04T03:59:05.942Z,50.97
2019-04-04T04:02:17.822Z,46.67
2019-04-04T04:05:27.332Z,48.90
2019-04-04T04:08:34.877Z,44.77
2019-04-04T04:11:42.508Z,46.47
2019-04-04T04:14:53.863Z,44.00
2019-04-04T04:18:00.072Z,50.20
2019-04-04T04:21:10.951Z,50.93
2019-04-04T04:24:16.732Z,54.33
2019-04-04T04:27:24.526Z,56.50
2019-04-04T04:30:33.327Z,48.73
2019-04-04T04:33:40.980Z,51.33
2019-04-04T04:36:48.686Z,58.60
2019-04-04T04:39:56.140Z,50.47
2019-04-04T04:43:04.848Z,56.00
2019-04-04T04:46:16.909Z,54.07
2019-04-04T04:49:23.327Z,56.17
2019-04-04T04:52:30.604Z,47.20
2019-04-04T04:55:38.107Z,49.97
2019-04-04T04:58:45.591Z,52.50
2019-04-04T05:01:53.047Z,46.10
2019-04-04T05:05:00.571Z,46.63
2019-04-04T05:08:09.878Z,44.10
2019-04-04T05:11:19.103Z,42.97
2019-04-04T05:14:27.804Z,51.17
2019-04-04T05:17:35.673Z,44.80
2019-04-04T05:20:43.138Z,47.37
2019-04-04T05:23:50.771Z,45.80
2019-04-04T05:26:58.371Z,53.53
2019-04-04T05:30:08.363Z,53.53
2019-04-04T05:33:15.871Z,52.30
2019-04-04T05:36:23.492Z,53.23
2019-04-04T05:39:31.061Z,49.50
2019-04-04T05:42:38.927Z,55.63
2019-04-04T05:45:46.423Z,54.17
2019-04-04T05:48:53.943Z,67.73
2019-04-04T05:52:01.481Z,63.80
2019-04-04T05:55:10.919Z,56.10
2019-04-04T05:58:21.576Z,55.97
2019-04-04T06:01:27.397Z,66.37
2019-04-04T06:04:34.882Z,54.17
2019-04-04T06:07:42.444Z,62.80
2019-04-04T06:10:50.247Z,53.87
2019-04-04T06:13:59.122Z,57.73
2019-04-04T06:17:07.857Z,63.93
2019-04-04T06:20:15.715Z,56.60
2019-04-04T06:23:25.097Z,57.80
2019-04-04T06:26:32.411Z,51.57
2019-04-04T06:29:39.887Z,52.33
2019-04-04T06:32:49.194Z,48.97
2019-04-04T06:35:58.138Z,55.43
2019-04-04T06:39:08.223Z,72.43
2019-04-04T06:42:15.822Z,62.30
2019-04-04T06:45:23.337Z,45.73
2019-04-04T06:48:33.857Z,52.83
2019-04-04T06:51:39.950Z,59.77
2019-04-04T06:54:47.400Z,46.03
2019-04-04T06:57:54.922Z,49.43
2019-04-04T07:01:02.580Z,55.43
2019-04-04T07:04:10.123Z,46.83
2019-04-04T07:07:17.720Z,57.90
2019-04-04T07:10:25.377Z,46.77
2019-04-04T07:13:42.121Z,47.17
2019-04-04T07:16:42.189Z,41.00
2019-04-04T07:19:49.755Z,42.97
2019-04-04T07:22:57.479Z,45.37
2019-04-04T07:26:05.537Z,47.50
2019-04-04T07:29:15.205Z,43.53
2019-04-04T07:32:22.707Z,34.33
2019-04-04T07:35:30.300Z,36.17
2019-04-04T07:38:38.073Z,38.90
2019-04-04T07:41:45.636Z,33.20
2019-04-04T07:44:54.710Z,37.23
2019-04-04T07:48:03.546Z,39.90
2019-04-04T07:51:12.313Z,35.13
2019-04-04T07:54:19.807Z,35.00
2019-04-04T07:57:30.007Z,38.00
2019-04-04T08:00:36.604Z,26.37
2019-04-04T08:03:44.401Z,19.10
2019-04-04T08:06:51.919Z,13.83
2019-04-04T08:09:59.575Z,16.00
2019-04-04T08:13:07.130Z,10.67
2019-04-04T08:16:15.725Z,11.33
2019-04-04T08:19:23.230Z,10.50
2019-04-04T08:22:30.668Z,14.53
2019-04-04T08:25:39.122Z,14.90
2019-04-04T08:28:46.673Z,14.13
2019-04-04T08:31:54.256Z,13.90
2019-04-04T08:35:01.838Z,13.47
2019-04-04T08:38:09.500Z,11.27
2019-04-04T08:41:17.043Z,12.00
2019-04-04T08:44:24.515Z,16.17
2019-04-04T08:47:32.039Z,11.27
2019-04-04T08:50:40.012Z,10.20
2019-04-04T08:53:47.609Z,13.07
2019-04-04T08:56:55.193Z,7.57
2019-04-04T09:00:02.832Z,19.63
2019-04-04T09:03:11.894Z,13.73
2019-04-04T09:06:19.968Z,15.43
2019-04-04T09:09:27.513Z,12.00
2019-04-04T09:12:35.000Z,10.27
2019-04-04T09:15:42.722Z,13.83
2019-04-04T09:18:50.202Z,14.43
2019-04-04T09:21:57.684Z,16.20
2019-04-04T09:25:06.225Z,15.80
2019-04-04T09:28:14.794Z,17.03
2019-04-04T09:31:22.323Z,17.40
2019-04-04T09:34:29.848Z,12.80
2019-04-04T09:37:37.404Z,10.37
2019-04-04T09:40:44.947Z,14.23
2019-04-04T09:43:52.444Z,18.23
2019-04-04T09:47:05.497Z,15.27
2019-04-04T09:50:10.296Z,19.20
2019-04-04T09:53:17.735Z,11.43
2019-04-04T09:56:25.597Z,15.80
2019-04-04T09:59:33.066Z,12.10
2019-04-04T10:02:40.551Z,14.00
2019-04-04T10:05:48.644Z,14.60
2019-04-04T10:08:57.336Z,9.23
2019-04-04T10:12:04.796Z,12.50
2019-04-04T10:15:12.997Z,13.07
2019-04-04T10:18:20.574Z,13.13
2019-04-04T10:21:28.191Z,12.13
2019-04-04T10:24:35.710Z,11.50
2019-04-04T10:27:43.236Z,14.27
2019-04-04T10:30:50.868Z,13.27
2019-04-04T10:33:58.482Z,10.67
2019-04-04T10:37:05.942Z,12.47
2019-04-04T10:40:13.722Z,13.60
2019-04-04T10:43:21.302Z,12.90
2019-04-04T10:46:28.878Z,12.37
2019-04-04T10:49:36.583Z,20.03
2019-04-04T10:52:44.235Z,9.57
2019-04-04T10:55:51.841Z,12.63
2019-04-04T10:58:59.462Z,10.47
2019-04-04T11:02:07.602Z,9.10
2019-04-04T11:05:15.357Z,9.83
2019-04-04T11:08:23.030Z,7.63
2019-04-04T11:11:30.502Z,8.93
2019-04-04T11:14:38.092Z,11.37
2019-04-04T11:17:45.802Z,15.67
2019-04-04T11:20:53.446Z,13.77
2019-04-04T11:24:01.014Z,16.83
2019-04-04T11:27:08.590Z,16.20
2019-04-04T11:30:17.266Z,10.10
2019-04-04T11:33:24.874Z,9.73
2019-04-04T11:36:32.430Z,11.77
2019-04-04T11:39:39.992Z,15.40
2019-04-04T11:42:47.636Z,12.93
2019-04-04T11:45:55.085Z,9.57
2019-04-04T11:49:02.570Z,12.57
2019-04-04T11:52:10.076Z,10.73
2019-04-04T11:55:17.592Z,20.30
2019-04-04T11:58:25.082Z,14.20
2019-04-04T12:01:33.623Z,9.40
2019-04-04T12:04:41.084Z,14.30
2019-04-04T12:07:48.514Z,7.83
2019-04-04T12:10:55.991Z,21.20
2019-04-04T12:14:05.398Z,12.80
2019-04-04T12:17:13.009Z,11.67
2019-04-04T12:20:20.614Z,12.53
2019-04-04T12:23:28.183Z,10.90
2019-04-04T12:26:35.776Z,10.30
2019-04-04T12:29:43.304Z,14.70
2019-04-04T12:32:50.780Z,10.37
2019-04-04T12:35:58.314Z,10.23
2019-04-04T12:39:08.786Z,12.43
2019-04-04T12:42:16.388Z,9.60
2019-04-04T12:45:24.271Z,12.00
2019-04-04T12:48:32.574Z,7.27
2019-04-04T12:51:42.272Z,9.10
2019-04-04T12:54:49.806Z,8.73
2019-04-04T12:57:57.328Z,13.23
2019-04-04T13:01:04.841Z,12.50
2019-04-04T13:04:12.316Z,12.20
2019-04-04T13:07:19.764Z,14.63
2019-04-04T13:10:33.387Z,8.50
2019-04-04T13:13:38.371Z,7.90
2019-04-04T13:16:46.595Z,9.70
2019-04-04T13:19:54.376Z,9.93
2019-04-04T13:23:02.697Z,12.80
2019-04-04T13:26:10.826Z,12.30
2019-04-04T13:29:18.501Z,13.80
2019-04-04T13:32:25.988Z,15.57
2019-04-04T13:35:33.436Z,11.30
2019-04-04T13:38:41.074Z,10.53
2019-04-04T13:41:48.663Z,10.00
2019-04-04T13:44:56.191Z,12.43
2019-04-04T13:48:03.704Z,9.77
2019-04-04T13:51:11.215Z,9.47
2019-04-04T13:54:18.806Z,12.00
2019-04-04T13:57:26.429Z,9.70
2019-04-04T14:00:33.987Z,11.10
2019-04-04T14:03:43.219Z,11.27
2019-04-04T14:06:50.807Z,13.30
2019-04-04T14:09:59.516Z,13.40
2019-04-04T14:13:07.010Z,22.57
2019-04-04T14:16:15.738Z,17.30
2019-04-04T14:19:23.500Z,11.70
2019-04-04T14:22:31.079Z,13.40
2019-04-04T14:25:38.549Z,14.57
2019-04-04T14:28:46.069Z,9.93
2019-04-04T14:31:53.641Z,10.37
2019-04-04T14:35:01.902Z,11.33
2019-04-04T14:38:09.561Z,10.10
2019-04-04T14:41:18.141Z,14.83
2019-04-04T14:44:28.032Z,12.80
2019-04-04T14:47:37.039Z,13.73
2019-04-04T14:50:44.890Z,15.47
2019-04-04T14:53:52.465Z,14.97
2019-04-04T14:57:00.138Z,13.93
2019-04-04T15:00:09.454Z,12.13
2019-04-04T15:03:19.244Z,18.17
2019-04-04T15:06:26.849Z,13.53
2019-04-04T15:09:34.561Z,20.13
2019-04-04T15:12:42.102Z,17.07
2019-04-04T15:16:18.545Z,16.30
2019-04-04T15:19:26.624Z,20.97
2019-04-04T15:22:34.125Z,13.87
2019-04-04T15:25:41.634Z,17.00
2019-04-04T15:28:49.596Z,13.97
2019-04-04T15:31:57.168Z,13.03
2019-04-04T15:35:04.847Z,11.27
2019-04-04T15:38:12.456Z,18.00
2019-04-04T15:41:20.443Z,10.00
2019-04-04T15:44:28.163Z,14.93
2019-04-04T15:47:35.774Z,15.13
2019-04-04T15:50:43.467Z,19.03
2019-04-04T15:53:51.361Z,18.13
2019-04-04T15:56:58.981Z,15.00
2019-04-04T16:00:08.289Z,18.30
2019-04-04T16:03:15.997Z,16.20
2019-04-04T16:06:23.639Z,20.23
2019-04-04T16:09:31.168Z,12.60
2019-04-04T16:12:38.765Z,16.57
2019-04-04T16:15:46.416Z,15.70
2019-04-04T16:18:53.960Z,27.80
2019-04-04T16:22:02.736Z,18.67
2019-04-04T16:25:10.421Z,13.20
2019-04-04T16:28:18.027Z,17.37
2019-04-04T16:31:25.701Z,18.27
2019-04-04T16:34:33.398Z,16.23
2019-04-04T16:37:41.144Z,19.00
2019-04-04T16:40:49.141Z,15.10
2019-04-04T16:43:56.807Z,18.27
2019-04-04T16:47:04.646Z,19.10
2019-04-04T16:50:14.042Z,21.87
2019-04-04T16:53:21.651Z,21.97
2019-04-04T16:56:29.404Z,20.67
2019-04-04T16:59:37.198Z,18.77
2019-04-04T17:02:45.375Z,8.17
2019-04-04T17:05:52.875Z,24.03
2019-04-04T17:09:00.559Z,22.53
2019-04-04T17:12:15.077Z,28.00
2019-04-04T17:15:19.359Z,29.30
2019-04-04T17:18:27.004Z,24.30
2019-04-04T17:21:34.983Z,24.80
2019-04-04T17:24:42.754Z,18.67
2019-04-04T17:27:50.224Z,32.47
2019-04-04T17:30:57.902Z,25.73
2019-04-04T17:34:08.934Z,32.37
2019-04-04T17:37:16.646Z,29.90
2019-04-04T17:40:24.207Z,33.87
2019-04-04T17:43:32.378Z,33.67
2019-04-04T17:46:40.103Z,36.27
2019-04-04T17:49:47.945Z,31.97
2019-04-04T17:52:55.596Z,29.47
2019-04-04T17:56:04.057Z,44.67
2019-04-04T17:59:11.748Z,73.47
2019-04-04T18:02:19.350Z,79.67
2019-04-04T18:05:27.119Z,65.20
2019-04-04T18:08:34.714Z,70.47
2019-04-04T18:11:42.381Z,66.20
2019-04-04T18:14:51.307Z,50.17
2019-04-04T18:18:00.474Z,43.10
2019-04-04T18:21:08.389Z,37.10
2019-04-04T18:24:16.109Z,35.37
2019-04-04T18:27:23.818Z,45.33
2019-04-04T18:30:31.465Z,49.03
2019-04-04T18:33:40.294Z,44.60
2019-04-04T18:36:48.521Z,45.83
2019-04-04T18:39:56.072Z,64.97
2019-04-04T18:43:03.729Z,47.40
2019-04-04T18:46:11.265Z,37.97
2019-04-04T18:49:18.942Z,38.03
2019-04-04T18:52:26.599Z,44.10
2019-04-04T18:55:34.198Z,36.20
2019-04-04T18:58:41.797Z,44.87
2019-04-04T19:01:52.092Z,55.10
2019-04-04T19:04:59.613Z,53.33
2019-04-04T19:08:07.189Z,46.93
2019-04-04T19:11:14.692Z,37.40
2019-04-04T19:14:22.292Z,40.40
2019-04-04T19:17:29.749Z,35.20
2019-04-04T19:20:37.539Z,34.27
2019-04-04T19:23:49.489Z,35.33
2019-04-04T19:26:54.415Z,28.63
2019-04-04T19:30:02.028Z,31.13
2019-04-04T19:33:09.581Z,35.07
2019-04-04T19:36:17.238Z,34.00
2019-04-04T19:39:25.095Z,32.90
2019-04-04T19:42:32.663Z,35.93
2019-04-04T19:45:40.285Z,35.70
2019-04-04T19:48:48.448Z,28.77
2019-04-04T19:51:56.065Z,29.93
2019-04-04T19:55:03.934Z,31.60
2019-04-04T19:58:13.205Z,34.37
2019-04-04T20:01:20.795Z,35.17
2019-04-04T20:04:28.382Z,51.53
2019-04-04T20:07:36.315Z,50.15
2019-04-04T20:10:43.869Z,49.33
2019-04-04T20:13:51.941Z,47.40
2019-04-04T20:17:00.813Z,48.53
2019-04-04T20:20:09.564Z,45.83
2019-04-04T20:23:17.351Z,36.47
2019-04-04T20:26:25.045Z,41.60
2019-04-04T20:29:32.761Z,32.90
2019-04-04T20:32:40.369Z,41.40
2019-04-04T20:35:48.333Z,34.87
2019-04-04T20:38:55.779Z,38.63
2019-04-04T20:42:03.451Z,37.10
2019-04-04T20:45:11.193Z,34.93
2019-04-04T20:48:18.721Z,33.10
2019-04-04T20:51:26.286Z,39.30
2019-04-04T20:54:33.955Z,35.13
2019-04-04T20:57:41.573Z,36.53
2019-04-04T21:00:49.114Z,37.77
2019-04-04T21:03:56.776Z,37.63
2019-04-04T21:07:04.361Z,36.97
2019-04-04T21:10:12.367Z,35.60
2019-04-04T21:13:19.995Z,36.37
2019-04-04T21:16:27.580Z,36.50
2019-04-04T21:19:35.171Z,44.10
2019-04-04T21:22:42.642Z,37.93
2019-04-04T21:25:50.165Z,41.60
2019-04-04T21:28:57.659Z,36.87
2019-04-04T21:32:05.231Z,41.30
2019-04-04T21:35:14.442Z,55.93
2019-04-04T21:38:21.973Z,34.87
2019-04-04T21:41:29.453Z,36.20
2019-04-04T21:44:36.995Z,38.07
2019-04-04T21:47:44.477Z,43.73
2019-04-04T21:50:52.045Z,41.40
2019-04-04T21:53:59.625Z,38.67
2019-04-04T21:57:07.141Z,40.73
2019-04-04T22:00:14.747Z,46.00
2019-04-04T22:03:23.970Z,36.00
2019-04-04T22:06:31.437Z,44.57
2019-04-04T22:09:38.933Z,39.03
2019-04-04T22:12:46.441Z,39.27
2019-04-04T22:15:54.007Z,36.63
2019-04-04T22:19:01.586Z,41.57
2019-04-04T22:22:09.291Z,40.57
2019-04-04T22:25:16.737Z,36.93
2019-04-04T22:28:24.220Z,40.40
2019-04-04T22:31:31.708Z,37.27
2019-04-04T22:34:39.231Z,37.83
2019-04-04T22:37:46.727Z,39.87
2019-04-04T22:40:54.228Z,36.10
2019-04-04T22:44:03.820Z,36.30
2019-04-04T22:47:12.613Z,39.37
2019-04-04T22:50:20.118Z,38.13
2019-04-04T22:53:27.673Z,44.30
2019-04-04T22:56:35.265Z,35.20
2019-04-04T22:59:42.738Z,36.60
2019-04-04T23:02:50.281Z,37.40
2019-04-04T23:05:57.791Z,38.60
2019-04-04T23:09:08.215Z,44.30
2019-04-04T23:12:15.859Z,38.67
2019-04-04T23:15:23.333Z,34.60
2019-04-04T23:18:30.787Z,45.40
2019-04-04T23:21:40.103Z,40.40
2019-04-04T23:24:47.710Z,40.90
2019-04-04T23:27:55.281Z,38.00
2019-04-04T23:31:02.759Z,41.33
2019-04-04T23:34:10.288Z,38.77
2019-04-04T23:37:17.789Z,40.30
2019-04-04T23:40:25.287Z,38.40
2019-04-04T23:43:32.794Z,41.77
2019-04-04T23:46:40.309Z,35.97
2019-04-04T23:49:47.763Z,40.73
2019-04-04T23:52:55.321Z,42.13
2019-04-04T23:56:03.124Z,34.03
2019-04-04T23:59:10.795Z,40.60
